sensor_id;sensor_type;location;lat;lon;timestamp;pressure;altitude;pressure_sealevel;temperature;humidity
20077;BME280;12348;42.710;23.378;2023-11-18T00:01:23;94385.72;;;6.14;100.00
20077;BME280;12348;42.710;23.378;2023-11-18T00:03:50;94379.59;;;6.14;100.00
20077;BME280;12348;42.710;23.378;2023-11-18T00:06:18;94371.69;;;5.98;100.00
20077;BME280;12348;42.710;23.378;2023-11-18T00:08:47;94369.03;;;5.98;100.00
20077;BME280;12348;42.710;23.378;2023-11-18T00:11:15;94382.72;;;5.87;100.00
20077;BME280;12348;42.710;23.378;2023-11-18T00:13:43;94373.56;;;5.98;100.00
20077;BME280;12348;42.710;23.378;2023-11-18T00:16:10;94372.25;;;5.95;100.00
20077;BME280;12348;42.710;23.378;2023-11-18T00:18:38;94385.06;;;5.93;100.00
20077;BME280;12348;42.710;23.378;2023-11-18T00:21:06;94390.16;;;5.95;100.00
20077;BME280;12348;42.710;23.378;2023-11-18T00:23:33;94405.91;;;5.91;100.00
20077;BME280;12348;42.710;23.378;2023-11-18T00:25:59;94416.09;;;5.84;100.00
20077;BME280;12348;42.710;23.378;2023-11-18T00:28:27;94404.63;;;5.78;100.00
20077;BME280;12348;42.710;23.378;2023-11-18T00:30:55;94404.13;;;5.76;100.00
20077;BME280;12348;42.710;23.378;2023-11-18T00:33:22;94374.78;;;5.71;100.00
20077;BME280;12348;42.710;23.378;2023-11-18T00:35:48;94372.69;;;5.63;100.00
20077;BME280;12348;42.710;23.378;2023-11-18T00:38:15;94390.66;;;5.52;100.00
20077;BME280;12348;42.710;23.378;2023-11-18T00:40:43;94386.97;;;5.43;100.00
20077;BME280;12348;42.710;23.378;2023-11-18T00:43:09;94385.03;;;5.54;100.00
20077;BME280;12348;42.710;23.378;2023-11-18T00:45:36;94380.75;;;5.58;100.00
20077;BME280;12348;42.710;23.378;2023-11-18T00:48:05;94391.44;;;5.58;100.00
20077;BME280;12348;42.710;23.378;2023-11-18T00:50:33;94390.63;;;5.57;100.00
20077;BME280;12348;42.710;23.378;2023-11-18T00:52:59;94386.38;;;5.56;100.00
20077;BME280;12348;42.710;23.378;2023-11-18T00:55:26;94386.38;;;5.51;100.00
20077;BME280;12348;42.710;23.378;2023-11-18T00:57:53;94384.00;;;5.50;100.00
20077;BME280;12348;42.710;23.378;2023-11-18T01:00:20;94388.06;;;5.42;100.00
20077;BME280;12348;42.710;23.378;2023-11-18T01:02:47;94378.44;;;5.41;100.00
20077;BME280;12348;42.710;23.378;2023-11-18T01:05:16;94396.31;;;5.41;100.00
20077;BME280;12348;42.710;23.378;2023-11-18T01:07:43;94389.38;;;5.40;100.00
20077;BME280;12348;42.710;23.378;2023-11-18T01:10:10;94386.19;;;5.38;100.00
20077;BME280;12348;42.710;23.378;2023-11-18T01:12:38;94406.53;;;5.28;100.00
20077;BME280;12348;42.710;23.378;2023-11-18T01:15:06;94411.31;;;5.26;100.00
20077;BME280;12348;42.710;23.378;2023-11-18T01:17:35;94424.72;;;5.21;100.00
20077;BME280;12348;42.710;23.378;2023-11-18T01:20:02;94413.78;;;5.18;100.00
20077;BME280;12348;42.710;23.378;2023-11-18T01:22:36;94424.41;;;5.28;100.00
20077;BME280;12348;42.710;23.378;2023-11-18T01:25:04;94421.19;;;5.36;100.00
20077;BME280;12348;42.710;23.378;2023-11-18T01:27:31;94421.72;;;5.33;100.00
20077;BME280;12348;42.710;23.378;2023-11-18T01:29:59;94420.66;;;5.34;100.00
20077;BME280;12348;42.710;23.378;2023-11-18T01:32:26;94424.13;;;5.34;100.00
20077;BME280;12348;42.710;23.378;2023-11-18T01:34:55;94400.91;;;5.30;100.00
20077;BME280;12348;42.710;23.378;2023-11-18T01:37:22;94412.94;;;5.22;100.00
20077;BME280;12348;42.710;23.378;2023-11-18T01:39:51;94401.22;;;5.23;100.00
20077;BME280;12348;42.710;23.378;2023-11-18T01:42:18;94417.78;;;5.20;100.00
20077;BME280;12348;42.710;23.378;2023-11-18T01:44:44;94412.19;;;5.17;100.00
20077;BME280;12348;42.710;23.378;2023-11-18T01:47:12;94414.84;;;5.11;100.00
20077;BME280;12348;42.710;23.378;2023-11-18T01:49:40;94411.06;;;5.28;100.00
20077;BME280;12348;42.710;23.378;2023-11-18T01:52:10;94409.50;;;5.22;100.00
20077;BME280;12348;42.710;23.378;2023-11-18T01:54:37;94414.59;;;5.13;100.00
20077;BME280;12348;42.710;23.378;2023-11-18T01:57:06;94425.53;;;5.11;100.00
20077;BME280;12348;42.710;23.378;2023-11-18T01:59:34;94404.50;;;5.05;100.00
20077;BME280;12348;42.710;23.378;2023-11-18T02:02:03;94406.66;;;4.93;100.00
20077;BME280;12348;42.710;23.378;2023-11-18T02:04:30;94402.63;;;5.00;100.00
20077;BME280;12348;42.710;23.378;2023-11-18T02:06:58;94387.72;;;4.89;100.00
20077;BME280;12348;42.710;23.378;2023-11-18T02:09:29;94408.56;;;4.87;100.00
20077;BME280;12348;42.710;23.378;2023-11-18T02:11:59;94401.91;;;4.79;100.00
20077;BME280;12348;42.710;23.378;2023-11-18T02:14:30;94411.25;;;4.72;100.00
20077;BME280;12348;42.710;23.378;2023-11-18T02:16:59;94401.13;;;4.69;100.00
20077;BME280;12348;42.710;23.378;2023-11-18T02:19:29;94423.25;;;4.59;100.00
20077;BME280;12348;42.710;23.378;2023-11-18T02:21:57;94410.22;;;4.57;100.00
20077;BME280;12348;42.710;23.378;2023-11-18T02:24:25;94424.91;;;4.50;100.00
20077;BME280;12348;42.710;23.378;2023-11-18T02:26:56;94395.03;;;4.48;100.00
20077;BME280;12348;42.710;23.378;2023-11-18T02:29:23;94422.78;;;4.42;100.00
20077;BME280;12348;42.710;23.378;2023-11-18T02:31:52;94407.56;;;4.42;100.00
20077;BME280;12348;42.710;23.378;2023-11-18T02:34:24;94416.09;;;4.39;100.00
20077;BME280;12348;42.710;23.378;2023-11-18T02:36:55;94431.03;;;4.45;100.00
20077;BME280;12348;42.710;23.378;2023-11-18T02:39:28;94420.88;;;4.47;100.00
20077;BME280;12348;42.710;23.378;2023-11-18T02:42:01;94429.69;;;4.43;100.00
20077;BME280;12348;42.710;23.378;2023-11-18T02:44:29;94423.03;;;4.45;100.00
20077;BME280;12348;42.710;23.378;2023-11-18T02:46:58;94422.22;;;4.40;100.00
20077;BME280;12348;42.710;23.378;2023-11-18T02:49:25;94427.03;;;4.27;100.00
20077;BME280;12348;42.710;23.378;2023-11-18T02:51:53;94432.66;;;4.26;100.00
20077;BME280;12348;42.710;23.378;2023-11-18T02:54:20;94435.31;;;4.16;100.00
20077;BME280;12348;42.710;23.378;2023-11-18T02:56:47;94434.78;;;4.08;100.00
20077;BME280;12348;42.710;23.378;2023-11-18T02:59:15;94443.84;;;4.07;100.00
20077;BME280;12348;42.710;23.378;2023-11-18T03:01:42;94433.16;;;4.02;100.00
20077;BME280;12348;42.710;23.378;2023-11-18T03:04:09;94449.16;;;3.97;100.00
20077;BME280;12348;42.710;23.378;2023-11-18T03:06:36;94431.03;;;3.89;100.00
20077;BME280;12348;42.710;23.378;2023-11-18T03:09:02;94464.56;;;3.85;100.00
20077;BME280;12348;42.710;23.378;2023-11-18T03:11:32;94480.00;;;3.78;100.00
20077;BME280;12348;42.710;23.378;2023-11-18T03:13:59;94482.16;;;3.86;100.00
20077;BME280;12348;42.710;23.378;2023-11-18T03:16:28;94470.44;;;3.87;100.00
20077;BME280;12348;42.710;23.378;2023-11-18T03:18:56;94483.75;;;3.87;100.00
20077;BME280;12348;42.710;23.378;2023-11-18T03:21:24;94478.66;;;3.80;100.00
20077;BME280;12348;42.710;23.378;2023-11-18T03:23:51;94470.94;;;3.79;100.00
20077;BME280;12348;42.710;23.378;2023-11-18T03:26:19;94473.59;;;3.79;100.00
20077;BME280;12348;42.710;23.378;2023-11-18T03:28:46;94486.09;;;3.73;100.00
20077;BME280;12348;42.710;23.378;2023-11-18T03:31:13;94473.84;;;3.72;100.00
20077;BME280;12348;42.710;23.378;2023-11-18T03:33:42;94473.84;;;3.72;100.00
20077;BME280;12348;42.710;23.378;2023-11-18T03:36:10;94487.44;;;3.71;100.00
20077;BME280;12348;42.710;23.378;2023-11-18T03:38:38;94502.84;;;3.69;100.00
20077;BME280;12348;42.710;23.378;2023-11-18T03:41:05;94491.66;;;3.61;100.00
20077;BME280;12348;42.710;23.378;2023-11-18T03:43:33;94492.22;;;3.63;100.00
20077;BME280;12348;42.710;23.378;2023-11-18T03:46:00;94488.00;;;3.78;100.00
20077;BME280;12348;42.710;23.378;2023-11-18T03:48:27;94503.94;;;3.62;100.00
20077;BME280;12348;42.710;23.378;2023-11-18T03:50:55;94506.31;;;3.64;100.00
20077;BME280;12348;42.710;23.378;2023-11-18T03:53:21;94509.22;;;3.57;100.00
20077;BME280;12348;42.710;23.378;2023-11-18T03:55:48;94486.03;;;3.48;100.00
20077;BME280;12348;42.710;23.378;2023-11-18T03:58:17;94479.88;;;3.47;100.00
20077;BME280;12348;42.710;23.378;2023-11-18T04:00:43;94491.09;;;3.44;100.00
20077;BME280;12348;42.710;23.378;2023-11-18T04:03:10;94492.13;;;3.38;100.00
20077;BME280;12348;42.710;23.378;2023-11-18T04:05:37;94495.84;;;3.37;100.00
20077;BME280;12348;42.710;23.378;2023-11-18T04:08:06;94508.34;;;3.36;100.00
20077;BME280;12348;42.710;23.378;2023-11-18T04:10:32;94512.59;;;3.37;100.00
20077;BME280;12348;42.710;23.378;2023-11-18T04:12:59;94516.94;;;3.59;100.00
20077;BME280;12348;42.710;23.378;2023-11-18T04:15:27;94509.72;;;3.54;100.00
20077;BME280;12348;42.710;23.378;2023-11-18T04:17:55;94504.38;;;3.44;100.00
20077;BME280;12348;42.710;23.378;2023-11-18T04:20:22;94505.97;;;3.40;100.00
20077;BME280;12348;42.710;23.378;2023-11-18T04:22:49;94510.47;;;3.39;100.00
20077;BME280;12348;42.710;23.378;2023-11-18T04:25:17;94518.72;;;3.33;100.00
20077;BME280;12348;42.710;23.378;2023-11-18T04:27:44;94511.25;;;3.35;100.00
20077;BME280;12348;42.710;23.378;2023-11-18T04:30:11;94512.31;;;3.34;100.00
20077;BME280;12348;42.710;23.378;2023-11-18T04:32:38;94520.81;;;3.31;100.00
20077;BME280;12348;42.710;23.378;2023-11-18T04:35:08;94522.41;;;3.32;100.00
20077;BME280;12348;42.710;23.378;2023-11-18T04:37:37;94515.47;;;3.26;100.00
20077;BME280;12348;42.710;23.378;2023-11-18T04:40:06;94531.44;;;3.26;100.00
20077;BME280;12348;42.710;23.378;2023-11-18T04:42:38;94528.34;;;3.44;100.00
20077;BME280;12348;42.710;23.378;2023-11-18T04:45:05;94527.78;;;3.42;100.00
20077;BME280;12348;42.710;23.378;2023-11-18T04:47:32;94519.78;;;3.42;100.00
20077;BME280;12348;42.710;23.378;2023-11-18T04:49:59;94502.75;;;3.33;100.00
20077;BME280;12348;42.710;23.378;2023-11-18T04:52:26;94520.78;;;3.26;100.00
20077;BME280;12348;42.710;23.378;2023-11-18T04:54:53;94508.53;;;3.25;100.00
20077;BME280;12348;42.710;23.378;2023-11-18T04:57:19;94505.84;;;3.20;100.00
20077;BME280;12348;42.710;23.378;2023-11-18T04:59:47;94520.47;;;3.17;100.00
20077;BME280;12348;42.710;23.378;2023-11-18T05:02:15;94521.28;;;3.18;100.00
20077;BME280;12348;42.710;23.378;2023-11-18T05:04:41;94521.00;;;3.14;100.00
20077;BME280;12348;42.710;23.378;2023-11-18T05:07:08;94521.50;;;3.11;100.00
20077;BME280;12348;42.710;23.378;2023-11-18T05:09:35;94522.25;;;3.01;100.00
20077;BME280;12348;42.710;23.378;2023-11-18T05:12:03;94509.50;;;3.03;100.00
20077;BME280;12348;42.710;23.378;2023-11-18T05:14:30;94522.31;;;3.11;100.00
20077;BME280;12348;42.710;23.378;2023-11-18T05:16:59;94529.22;;;3.12;100.00
20077;BME280;12348;42.710;23.378;2023-11-18T05:19:30;94514.91;;;3.19;100.00
20077;BME280;12348;42.710;23.378;2023-11-18T05:21:56;94538.28;;;3.16;100.00
20077;BME280;12348;42.710;23.378;2023-11-18T05:24:24;94531.09;;;3.17;100.00
20077;BME280;12348;42.710;23.378;2023-11-18T05:26:51;94520.19;;;3.13;100.00
20077;BME280;12348;42.710;23.378;2023-11-18T05:29:18;94526.56;;;3.12;100.00
20077;BME280;12348;42.710;23.378;2023-11-18T05:31:46;94519.88;;;3.05;100.00
20077;BME280;12348;42.710;23.378;2023-11-18T05:34:14;94520.94;;;3.04;100.00
20077;BME280;12348;42.710;23.378;2023-11-18T05:36:41;94495.66;;;3.01;100.00
20077;BME280;12348;42.710;23.378;2023-11-18T05:39:07;94479.41;;;2.98;100.00
20077;BME280;12348;42.710;23.378;2023-11-18T05:41:36;94497.75;;;2.94;100.00
20077;BME280;12348;42.710;23.378;2023-11-18T05:44:05;94484.97;;;2.91;100.00
20077;BME280;12348;42.710;23.378;2023-11-18T05:46:34;94469.25;;;2.84;100.00
20077;BME280;12348;42.710;23.378;2023-11-18T05:49:02;94488.09;;;2.83;100.00
20077;BME280;12348;42.710;23.378;2023-11-18T05:51:34;94477.19;;;2.79;100.00
20077;BME280;12348;42.710;23.378;2023-11-18T05:54:01;94486.06;;;2.95;100.00
20077;BME280;12348;42.710;23.378;2023-11-18T05:56:28;94470.13;;;3.00;100.00
20077;BME280;12348;42.710;23.378;2023-11-18T05:58:54;94478.59;;;2.92;100.00
20077;BME280;12348;42.710;23.378;2023-11-18T06:01:21;94498.81;;;2.93;100.00
20077;BME280;12348;42.710;23.378;2023-11-18T06:03:48;94488.69;;;2.90;100.00
20077;BME280;12348;42.710;23.378;2023-11-18T06:06:16;94477.53;;;2.93;100.00
20077;BME280;12348;42.710;23.378;2023-11-18T06:08:44;94466.59;;;2.84;100.00
20077;BME280;12348;42.710;23.378;2023-11-18T06:11:14;94481.47;;;2.85;100.00
20077;BME280;12348;42.710;23.378;2023-11-18T06:13:42;94476.44;;;2.84;100.00
20077;BME280;12348;42.710;23.378;2023-11-18T06:16:12;94469.75;;;2.81;100.00
20077;BME280;12348;42.710;23.378;2023-11-18T06:18:43;94493.41;;;2.83;100.00
20077;BME280;12348;42.710;23.378;2023-11-18T06:21:14;94506.72;;;2.83;100.00
20077;BME280;12348;42.710;23.378;2023-11-18T06:23:41;94494.41;;;2.72;100.00
20077;BME280;12348;42.710;23.378;2023-11-18T06:26:09;94504.25;;;2.71;100.00
20077;BME280;12348;42.710;23.378;2023-11-18T06:28:38;94504.59;;;2.85;100.00
20077;BME280;12348;42.710;23.378;2023-11-18T06:31:05;94524.00;;;2.85;100.00
20077;BME280;12348;42.710;23.378;2023-11-18T06:33:36;94505.94;;;2.87;100.00
20077;BME280;12348;42.710;23.378;2023-11-18T06:36:09;94518.47;;;2.92;100.00
20077;BME280;12348;42.710;23.378;2023-11-18T06:38:36;94511.59;;;3.01;100.00
20077;BME280;12348;42.710;23.378;2023-11-18T06:41:04;94489.53;;;3.01;100.00
20077;BME280;12348;42.710;23.378;2023-11-18T06:43:36;94514.31;;;3.06;100.00
20077;BME280;12348;42.710;23.378;2023-11-18T06:46:18;94517.19;;;3.00;100.00
20077;BME280;12348;42.710;23.378;2023-11-18T06:48:46;94519.06;;;2.99;100.00
20077;BME280;12348;42.710;23.378;2023-11-18T06:51:13;94513.25;;;3.12;100.00
20077;BME280;12348;42.710;23.378;2023-11-18T06:53:41;94527.13;;;3.14;100.00
20077;BME280;12348;42.710;23.378;2023-11-18T06:56:08;94515.41;;;3.15;100.00
20077;BME280;12348;42.710;23.378;2023-11-18T06:58:38;94531.94;;;3.23;100.00
20077;BME280;12348;42.710;23.378;2023-11-18T07:01:05;94536.19;;;3.19;100.00
20077;BME280;12348;42.710;23.378;2023-11-18T07:03:34;94541.28;;;3.25;100.00
20077;BME280;12348;42.710;23.378;2023-11-18T07:06:03;94543.38;;;3.18;100.00
20077;BME280;12348;42.710;23.378;2023-11-18T07:08:35;94566.78;;;3.21;100.00
20077;BME280;12348;42.710;23.378;2023-11-18T07:11:02;94554.88;;;3.29;100.00
20077;BME280;12348;42.710;23.378;2023-11-18T07:13:31;94565.97;;;3.21;100.00
20077;BME280;12348;42.710;23.378;2023-11-18T07:16:01;94550.00;;;3.15;100.00
20077;BME280;12348;42.710;23.378;2023-11-18T07:18:29;94552.63;;;3.10;100.00
20077;BME280;12348;42.710;23.378;2023-11-18T07:20:57;94548.84;;;3.01;100.00
20077;BME280;12348;42.710;23.378;2023-11-18T07:23:25;94537.09;;;2.92;100.00
20077;BME280;12348;42.710;23.378;2023-11-18T07:25:52;94552.56;;;3.00;100.00
20077;BME280;12348;42.710;23.378;2023-11-18T07:28:20;94553.66;;;3.04;100.00
20077;BME280;12348;42.710;23.378;2023-11-18T07:30:47;94562.19;;;3.06;100.00
20077;BME280;12348;42.710;23.378;2023-11-18T07:33:15;94544.66;;;3.10;100.00
20077;BME280;12348;42.710;23.378;2023-11-18T07:35:44;94562.75;;;3.13;100.00
20077;BME280;12348;42.710;23.378;2023-11-18T07:38:12;94544.97;;;3.24;100.00
20077;BME280;12348;42.710;23.378;2023-11-18T07:40:39;94564.66;;;3.23;100.00
20077;BME280;12348;42.710;23.378;2023-11-18T07:43:08;94553.44;;;3.11;100.00
20077;BME280;12348;42.710;23.378;2023-11-18T07:45:38;94572.66;;;3.23;100.00
20077;BME280;12348;42.710;23.378;2023-11-18T07:48:06;94529.28;;;3.23;100.00
20077;BME280;12348;42.710;23.378;2023-11-18T07:50:35;94550.28;;;3.19;100.00
20077;BME280;12348;42.710;23.378;2023-11-18T07:53:05;94568.63;;;3.15;100.00
20077;BME280;12348;42.710;23.378;2023-11-18T07:55:32;94547.63;;;3.24;100.00
20077;BME280;12348;42.710;23.378;2023-11-18T07:58:00;94554.75;;;3.13;100.00
20077;BME280;12348;42.710;23.378;2023-11-18T08:00:27;94569.69;;;3.20;100.00
20077;BME280;12348;42.710;23.378;2023-11-18T08:02:56;94575.72;;;3.05;100.00
20077;BME280;12348;42.710;23.378;2023-11-18T08:05:25;94556.03;;;3.01;100.00
20077;BME280;12348;42.710;23.378;2023-11-18T08:07:55;94533.97;;;3.05;100.00
20077;BME280;12348;42.710;23.378;2023-11-18T08:10:21;94561.63;;;3.04;100.00
20077;BME280;12348;42.710;23.378;2023-11-18T08:12:50;94566.97;;;3.09;100.00
20077;BME280;12348;42.710;23.378;2023-11-18T08:15:17;94555.22;;;3.00;100.00
20077;BME280;12348;42.710;23.378;2023-11-18T08:17:45;94575.72;;;3.05;100.00
20077;BME280;12348;42.710;23.378;2023-11-18T08:20:11;94550.97;;;2.99;100.00
20077;BME280;12348;42.710;23.378;2023-11-18T08:22:40;94542.72;;;3.01;100.00
20077;BME280;12348;42.710;23.378;2023-11-18T08:25:11;94527.63;;;3.06;100.00
20077;BME280;12348;42.710;23.378;2023-11-18T08:27:39;94559.03;;;3.14;100.00
20077;BME280;12348;42.710;23.378;2023-11-18T08:30:07;94576.09;;;3.19;100.00
20077;BME280;12348;42.710;23.378;2023-11-18T08:32:37;94561.19;;;3.18;100.00
20077;BME280;12348;42.710;23.378;2023-11-18T08:35:05;94581.13;;;3.20;100.00
20077;BME280;12348;42.710;23.378;2023-11-18T08:37:33;94551.88;;;3.20;100.00
20077;BME280;12348;42.710;23.378;2023-11-18T08:40:01;94566.06;;;3.36;100.00
20077;BME280;12348;42.710;23.378;2023-11-18T08:42:30;94572.50;;;3.40;100.00
20077;BME280;12348;42.710;23.378;2023-11-18T08:44:57;94570.38;;;3.47;100.00
20077;BME280;12348;42.710;23.378;2023-11-18T08:47:24;94575.16;;;3.45;100.00
20077;BME280;12348;42.710;23.378;2023-11-18T08:49:51;94582.81;;;3.31;100.00
20077;BME280;12348;42.710;23.378;2023-11-18T08:52:18;94562.34;;;3.37;100.00
20077;BME280;12348;42.710;23.378;2023-11-18T08:54:45;94582.78;;;3.26;100.00
20077;BME280;12348;42.710;23.378;2023-11-18T08:57:25;94575.44;;;3.44;100.00
20077;BME280;12348;42.710;23.378;2023-11-18T08:59:54;94572.44;;;3.35;100.00
20077;BME280;12348;42.710;23.378;2023-11-18T09:02:25;94578.84;;;3.34;100.00
20077;BME280;12348;42.710;23.378;2023-11-18T09:04:54;94576.97;;;3.34;100.00
20077;BME280;12348;42.710;23.378;2023-11-18T09:07:23;94554.34;;;3.32;100.00
20077;BME280;12348;42.710;23.378;2023-11-18T09:09:51;94570.56;;;3.30;100.00
20077;BME280;12348;42.710;23.378;2023-11-18T09:12:18;94557.25;;;3.30;100.00
20077;BME280;12348;42.710;23.378;2023-11-18T09:14:45;94591.53;;;3.22;100.00
20077;BME280;12348;42.710;23.378;2023-11-18T09:17:14;94545.13;;;3.02;100.00
20077;BME280;12348;42.710;23.378;2023-11-18T09:19:41;94590.38;;;3.07;100.00
20077;BME280;12348;42.710;23.378;2023-11-18T09:22:07;94589.56;;;3.07;100.00
20077;BME280;12348;42.710;23.378;2023-11-18T09:24:38;94588.38;;;3.30;100.00
20077;BME280;12348;42.710;23.378;2023-11-18T09:27:05;94589.47;;;3.34;100.00
20077;BME280;12348;42.710;23.378;2023-11-18T09:29:34;94581.22;;;3.35;100.00
20077;BME280;12348;42.710;23.378;2023-11-18T09:32:02;94569.72;;;3.25;100.00
20077;BME280;12348;42.710;23.378;2023-11-18T09:34:32;94582.22;;;3.24;100.00
20077;BME280;12348;42.710;23.378;2023-11-18T09:36:59;94576.91;;;3.24;100.00
20077;BME280;12348;42.710;23.378;2023-11-18T09:39:25;94524.75;;;3.23;100.00
20077;BME280;12348;42.710;23.378;2023-11-18T09:42:05;94531.41;;;3.21;100.00
20077;BME280;12348;42.710;23.378;2023-11-18T09:44:35;94528.78;;;3.26;100.00
20077;BME280;12348;42.710;23.378;2023-11-18T09:47:07;94544.97;;;3.24;100.00
20077;BME280;12348;42.710;23.378;2023-11-18T09:49:41;94559.03;;;3.14;100.00
20077;BME280;12348;42.710;23.378;2023-11-18T09:52:15;94558.28;;;3.24;100.00
20077;BME280;12348;42.710;23.378;2023-11-18T09:54:50;94548.16;;;3.21;100.00
20077;BME280;12348;42.710;23.378;2023-11-18T09:57:26;94529.28;;;3.18;100.00
20077;BME280;12348;42.710;23.378;2023-11-18T10:00:00;94518.88;;;3.16;100.00
20077;BME280;12348;42.710;23.378;2023-11-18T10:02:45;94540.94;;;3.11;100.00
20077;BME280;12348;42.710;23.378;2023-11-18T10:05:14;94542.56;;;3.18;100.00
20077;BME280;12348;42.710;23.378;2023-11-18T10:07:46;94543.59;;;3.16;100.00
20077;BME280;12348;42.710;23.378;2023-11-18T10:10:15;94558.56;;;3.28;100.00
20077;BME280;12348;42.710;23.378;2023-11-18T10:12:42;94534.09;;;3.26;100.00
20077;BME280;12348;42.710;23.378;2023-11-18T10:15:11;94551.66;;;3.27;100.00
20077;BME280;12348;42.710;23.378;2023-11-18T10:17:42;94556.47;;;3.30;100.00
20077;BME280;12348;42.710;23.378;2023-11-18T10:20:22;94564.97;;;3.32;100.00
20077;BME280;12348;42.710;23.378;2023-11-18T10:23:05;94573.22;;;3.25;100.00
20077;BME280;12348;42.710;23.378;2023-11-18T10:25:32;94563.69;;;3.39;100.00
20077;BME280;12348;42.710;23.378;2023-11-18T10:28:01;94601.28;;;3.53;100.00
20077;BME280;12348;42.710;23.378;2023-11-18T10:30:28;94571.38;;;3.36;100.00
20077;BME280;12348;42.710;23.378;2023-11-18T10:32:58;94576.75;;;3.46;100.00
20077;BME280;12348;42.710;23.378;2023-11-18T10:35:33;94567.69;;;3.42;100.00
20077;BME280;12348;42.710;23.378;2023-11-18T10:38:02;94557.34;;;3.46;100.00
20077;BME280;12348;42.710;23.378;2023-11-18T10:40:31;94550.19;;;3.51;100.00
20077;BME280;12348;42.710;23.378;2023-11-18T10:43:00;94575.75;;;3.52;100.00
20077;BME280;12348;42.710;23.378;2023-11-18T10:45:34;94545.97;;;3.65;100.00
20077;BME280;12348;42.710;23.378;2023-11-18T10:48:05;94554.47;;;3.57;100.00
20077;BME280;12348;42.710;23.378;2023-11-18T10:50:33;94568.09;;;3.71;100.00
20077;BME280;12348;42.710;23.378;2023-11-18T10:53:00;94562.28;;;3.79;100.00
20077;BME280;12348;42.710;23.378;2023-11-18T10:55:35;94560.00;;;3.46;100.00
20077;BME280;12348;42.710;23.378;2023-11-18T10:58:02;94565.88;;;3.48;100.00
20077;BME280;12348;42.710;23.378;2023-11-18T11:00:45;94563.47;;;3.46;100.00
20077;BME280;12348;42.710;23.378;2023-11-18T11:03:12;94548.50;;;3.35;100.00
20077;BME280;12348;42.710;23.378;2023-11-18T11:05:41;94547.97;;;3.33;100.00
20077;BME280;12348;42.710;23.378;2023-11-18T11:08:11;94538.97;;;3.44;100.00
20077;BME280;12348;42.710;23.378;2023-11-18T11:10:40;94557.53;;;3.34;100.00
20077;BME280;12348;42.710;23.378;2023-11-18T11:13:08;94539.44;;;3.36;100.00
20077;BME280;12348;42.710;23.378;2023-11-18T11:15:40;94554.28;;;3.22;100.00
20077;BME280;12348;42.710;23.378;2023-11-18T11:18:12;94518.88;;;3.16;100.00
20077;BME280;12348;42.710;23.378;2023-11-18T11:20:56;94545.41;;;3.06;100.00
20077;BME280;12348;42.710;23.378;2023-11-18T11:23:33;94542.59;;;3.28;100.00
20077;BME280;12348;42.710;23.378;2023-11-18T11:26:16;94542.59;;;3.28;100.00
20077;BME280;12348;42.710;23.378;2023-11-18T11:28:54;94534.59;;;3.18;100.00
20077;BME280;12348;42.710;23.378;2023-11-18T11:31:29;94567.63;;;3.27;100.00
20077;BME280;12348;42.710;23.378;2023-11-18T11:33:59;94549.25;;;3.25;100.00
20077;BME280;12348;42.710;23.378;2023-11-18T11:36:38;94534.16;;;3.41;100.00
20077;BME280;12348;42.710;23.378;2023-11-18T11:39:07;94531.81;;;3.50;100.00
20077;BME280;12348;42.710;23.378;2023-11-18T11:41:44;94541.66;;;3.54;100.00
20077;BME280;12348;42.710;23.378;2023-11-18T11:44:12;94540.03;;;3.43;100.00
20077;BME280;12348;42.710;23.378;2023-11-18T11:46:40;94532.25;;;3.31;100.00
20077;BME280;12348;42.710;23.378;2023-11-18T11:49:09;94550.94;;;3.47;100.00
20077;BME280;12348;42.710;23.378;2023-11-18T11:51:47;94543.06;;;3.67;100.00
20077;BME280;12348;42.710;23.378;2023-11-18T11:54:18;94558.75;;;3.63;100.00
20077;BME280;12348;42.710;23.378;2023-11-18T11:56:49;94528.91;;;3.56;100.00
20077;BME280;12348;42.710;23.378;2023-11-18T11:59:35;94524.06;;;3.43;100.00
20077;BME280;12348;42.710;23.378;2023-11-18T12:02:04;94532.03;;;3.38;100.00
20077;BME280;12348;42.710;23.378;2023-11-18T12:04:33;94566.63;;;3.43;100.00
20077;BME280;12348;42.710;23.378;2023-11-18T12:07:04;94559.53;;;3.59;100.00
20077;BME280;12348;42.710;23.378;2023-11-18T12:09:32;94544.53;;;3.43;100.00
20077;BME280;12348;42.710;23.378;2023-11-18T12:12:04;94554.03;;;3.28;100.00
20077;BME280;12348;42.710;23.378;2023-11-18T12:14:49;94538.34;;;3.22;100.00
20077;BME280;12348;42.710;23.378;2023-11-18T12:17:16;94541.78;;;3.22;100.00
20077;BME280;12348;42.710;23.378;2023-11-18T12:19:48;94535.13;;;3.20;100.00
20077;BME280;12348;42.710;23.378;2023-11-18T12:22:18;94550.06;;;3.26;100.00
20077;BME280;12348;42.710;23.378;2023-11-18T12:28:11;94546.41;;;3.42;100.00
20077;BME280;12348;42.710;23.378;2023-11-18T12:30:42;94547.78;;;3.50;100.00
20077;BME280;12348;42.710;23.378;2023-11-18T12:33:18;94543.56;;;3.59;100.00
20077;BME280;12348;42.710;23.378;2023-11-18T12:42:08;94540.69;;;3.81;100.00
20077;BME280;12348;42.710;23.378;2023-11-18T12:44:56;94506.31;;;3.59;100.00
20077;BME280;12348;42.710;23.378;2023-11-18T12:47:37;94515.66;;;3.72;100.00
20077;BME280;12348;42.710;23.378;2023-11-18T12:50:09;94505.75;;;3.62;100.00
20077;BME280;12348;42.710;23.378;2023-11-18T12:52:42;94518.78;;;3.58;100.00
20077;BME280;12348;42.710;23.378;2023-11-18T12:55:11;94521.72;;;3.57;100.00
20077;BME280;12348;42.710;23.378;2023-11-18T12:57:47;94515.63;;;3.61;100.00
20077;BME280;12348;42.710;23.378;2023-11-18T13:00:16;94528.41;;;3.59;100.00
20077;BME280;12348;42.710;23.378;2023-11-18T13:02:52;94535.78;;;3.47;100.00
20077;BME280;12348;42.710;23.378;2023-11-18T13:05:19;94548.44;;;3.77;100.00
20077;BME280;12348;42.710;23.378;2023-11-18T13:07:45;94525.00;;;3.84;100.00
20077;BME280;12348;42.710;23.378;2023-11-18T13:10:13;94523.16;;;3.85;100.00